Time;durP1;ratioP1;P1;durP2;ratioP2;P2;SDS_P1;SDS_P2;PMS_P1;PMS_P2;Temp;Humidity;BMP_temperature;BMP_pressure;BME280_temperature;BME280_humidity;BME280_pressure;Samples;Min_cycle;Max_cycle;Signal;HPM_P1;HPM_P2
2023/04/14 00:00:19;;;;;;;2.97;0.95;;;24.20;44.80;;;;;;5041294;28;20033;-64
2023/04/14 00:02:46;;;;;;;1.30;0.80;;;24.20;44.80;;;;;;5042631;28;20052;-64
2023/04/14 00:05:12;;;;;;;1.73;0.80;;;24.20;44.80;;;;;;5038472;28;20418;-64
2023/04/14 00:07:37;;;;;;;1.20;0.70;;;24.30;44.80;;;;;;5038698;28;20041;-64
2023/04/14 00:10:03;;;;;;;1.20;0.70;;;24.30;44.80;;;;;;5039236;28;20017;-64
2023/04/14 00:12:29;;;;;;;1.48;0.80;;;24.30;44.80;;;;;;5039940;28;20029;-66
2023/04/14 00:14:54;;;;;;;1.38;0.70;;;24.30;44.80;;;;;;5039086;28;20033;-64
2023/04/14 00:17:20;;;;;;;1.90;0.90;;;24.20;44.90;;;;;;5037333;28;20560;-64
2023/04/14 00:19:46;;;;;;;3.67;0.93;;;24.30;44.90;;;;;;5038007;28;20539;-64
2023/04/14 00:22:11;;;;;;;0.88;0.68;;;24.20;44.90;;;;;;5038979;28;20044;-65
2023/04/14 00:24:42;;;;;;;1.63;0.90;;;24.20;44.80;;;;;;5039569;28;20112;-64
2023/04/14 00:27:10;;;;;;;1.17;0.88;;;24.20;44.70;;;;;;5036904;28;20034;-64
2023/04/14 00:29:39;;;;;;;1.27;0.80;;;24.30;44.80;;;;;;5038968;28;20017;-64
2023/04/14 00:32:05;;;;;;;1.38;0.90;;;24.30;45.30;;;;;;5037861;28;20481;-64
2023/04/14 00:34:31;;;;;;;1.75;0.95;;;24.30;44.70;;;;;;5035765;28;20034;-64
2023/04/14 00:36:57;;;;;;;1.70;0.90;;;24.30;44.70;;;;;;5037007;28;20474;-63
2023/04/14 00:39:23;;;;;;;1.30;0.85;;;24.30;44.70;;;;;;5040050;28;20465;-64
2023/04/14 00:41:48;;;;;;;1.58;1.02;;;24.30;44.70;;;;;;5041464;28;20108;-64
2023/04/14 00:44:14;;;;;;;1.02;0.77;;;24.30;44.70;;;;;;5041444;28;20473;-64
2023/04/14 00:46:41;;;;;;;1.67;0.90;;;24.30;44.60;;;;;;5039560;28;20125;-63
2023/04/14 00:49:07;;;;;;;1.42;0.90;;;24.30;44.60;;;;;;5043159;28;20025;-63
2023/04/14 00:51:33;;;;;;;2.40;0.90;;;24.30;45.10;;;;;;5040392;28;20078;-63
2023/04/14 00:54:04;;;;;;;1.58;0.77;;;24.30;44.60;;;;;;5043328;28;20693;-64
2023/04/14 00:56:30;;;;;;;1.48;0.80;;;24.30;44.50;;;;;;5042220;28;20029;-64
2023/04/14 00:59:00;;;;;;;0.95;0.65;;;24.30;44.50;;;;;;5040612;28;20465;-65
2023/04/14 01:01:27;;;;;;;1.90;0.98;;;24.30;45.10;;;;;;5042413;28;20469;-64
2023/04/14 01:03:54;;;;;;;2.47;0.90;;;24.30;44.50;;;;;;5040595;28;20040;-64
2023/04/14 01:06:20;;;;;;;1.85;1.00;;;24.40;44.50;;;;;;5040514;28;20021;-64
2023/04/14 01:08:47;;;;;;;1.23;0.80;;;24.40;44.50;;;;;;5041269;28;20074;-64
2023/04/14 01:11:27;;;;;;;1.02;0.70;;;24.30;44.50;;;;;;5048429;28;20480;-64
2023/04/14 01:14:18;;;;;;;1.42;0.80;;;24.30;44.50;;;;;;5042029;28;20025;-65
2023/04/14 01:16:48;;;;;;;1.00;0.70;;;24.30;44.50;;;;;;5042000;28;20040;-65
2023/04/14 01:19:44;;;;;;;1.52;0.82;;;24.30;44.40;;;;;;5040509;28;20112;-64
2023/04/14 01:22:13;;;;;;;2.70;0.80;;;24.40;44.50;;;;;;5042550;28;20120;-64
2023/04/14 01:24:42;;;;;;;2.30;0.80;;;24.30;44.40;;;;;;5041597;28;20037;-64
2023/04/14 01:27:45;;;;;;;1.50;0.77;;;24.30;44.40;;;;;;5041456;28;20111;-63
2023/04/14 01:30:42;;;;;;;1.50;0.80;;;24.40;44.40;;;;;;5040834;28;20045;-65
2023/04/14 01:33:14;;;;;;;1.52;0.70;;;24.40;44.40;;;;;;5030929;28;20037;-64
2023/04/14 01:35:46;;;;;;;1.25;0.80;;;24.30;44.30;;;;;;5040718;28;20041;-64
2023/04/14 01:38:21;;;;;;;1.50;0.80;;;24.40;44.80;;;;;;5043252;28;20120;-64
2023/04/14 01:40:50;;;;;;;1.25;0.73;;;24.40;44.30;;;;;;5041890;28;20036;-64
2023/04/14 01:43:20;;;;;;;1.90;0.90;;;24.40;44.30;;;;;;5040931;28;20056;-64
2023/04/14 01:45:51;;;;;;;1.60;0.90;;;24.40;44.30;;;;;;5044079;28;20033;-64
2023/04/14 01:48:17;;;;;;;1.20;0.70;;;24.40;44.30;;;;;;5039402;28;20025;-65
2023/04/14 01:50:44;;;;;;;1.40;0.85;;;24.40;44.30;;;;;;5041322;28;20053;-65
2023/04/14 01:53:12;;;;;;;1.17;0.75;;;24.40;44.30;;;;;;5027509;28;20029;-65
2023/04/14 01:55:39;;;;;;;1.50;0.70;;;24.40;44.30;;;;;;5042069;28;20029;-64
2023/04/14 01:58:07;;;;;;;1.67;0.90;;;24.40;44.30;;;;;;5044271;28;20028;-63
2023/04/14 02:00:35;;;;;;;1.52;0.88;;;24.40;44.30;;;;;;5038522;28;20385;-63
2023/04/14 02:03:02;;;;;;;1.33;0.80;;;24.40;44.20;;;;;;5039627;28;20032;-64
2023/04/14 02:05:30;;;;;;;2.13;1.10;;;24.40;44.20;;;;;;5039257;28;20477;-64
2023/04/14 02:07:59;;;;;;;1.67;0.82;;;24.40;44.20;;;;;;5040369;28;20064;-63
2023/04/14 02:10:26;;;;;;;1.50;0.80;;;24.40;44.20;;;;;;5041344;28;20488;-64
2023/04/14 02:12:55;;;;;;;1.75;0.80;;;24.40;44.20;;;;;;5039606;28;20466;-64
2023/04/14 02:15:22;;;;;;;;;;;24.40;44.20;;;;;;5039525;28;20025;-64
2023/04/14 02:17:49;;;;;;;0.85;0.80;;;24.40;44.20;;;;;;5043160;28;19916;-63
2023/04/14 02:20:15;;;;;;;1.80;1.10;;;24.40;44.10;;;;;;5039071;28;20444;-64
2023/04/14 02:22:41;;;;;;;2.13;0.90;;;24.40;44.10;;;;;;5039905;28;20473;-65
2023/04/14 02:25:08;;;;;;;0.95;0.70;;;24.40;44.10;;;;;;5039984;28;20469;-65
2023/04/14 02:27:55;;;;;;;1.23;0.80;;;24.40;44.10;;;;;;5039321;28;20545;-64
2023/04/14 02:30:26;;;;;;;1.73;0.80;;;24.40;44.10;;;;;;5040702;28;20040;-64
2023/04/14 02:33:05;;;;;;;1.17;0.80;;;24.40;44.10;;;;;;5042948;28;20107;-63
2023/04/14 02:36:01;;;;;;;1.02;0.70;;;24.40;44.10;;;;;;5042026;28;20037;-63
2023/04/14 02:38:37;;;;;;;1.60;0.73;;;24.30;44.10;;;;;;5036804;28;20052;-63
2023/04/14 02:41:09;;;;;;;1.00;0.70;;;24.30;44.10;;;;;;5041226;28;20029;-63
2023/04/14 02:43:43;;;;;;;0.93;0.70;;;24.40;44.20;;;;;;5040468;28;20477;-64
2023/04/14 02:46:10;;;;;;;1.08;0.75;;;24.30;44.20;;;;;;5037535;28;20030;-64
2023/04/14 02:48:38;;;;;;;1.23;0.77;;;24.30;44.20;;;;;;5040270;28;20057;-63
2023/04/14 02:51:06;;;;;;;1.10;0.80;;;24.30;44.20;;;;;;5036698;28;20445;-63
2023/04/14 02:53:33;;;;;;;1.00;0.70;;;24.20;44.10;;;;;;5040555;28;20025;-63
2023/04/14 02:55:59;;;;;;;0.80;0.60;;;24.20;44.10;;;;;;5038543;28;20029;-62
2023/04/14 02:58:28;;;;;;;1.27;0.75;;;24.20;44.10;;;;;;5040518;28;20072;-64
2023/04/14 03:00:55;;;;;;;0.77;0.60;;;24.20;44.10;;;;;;5035708;28;20404;-63
2023/04/14 03:03:22;;;;;;;2.08;0.80;;;24.20;44.10;;;;;;5040800;28;20130;-64
2023/04/14 03:05:48;;;;;;;1.08;0.70;;;24.20;44.10;;;;;;5038283;28;20065;-63
2023/04/14 03:08:15;;;;;;;0.65;0.60;;;24.10;44.10;;;;;;5038538;28;20483;-63
2023/04/14 03:10:44;;;;;;;1.23;0.70;;;24.10;44.20;;;;;;5040869;28;20021;-63
2023/04/14 03:13:11;;;;;;;;;;;24.10;44.20;;;;;;5038660;28;20033;-63
2023/04/14 03:15:38;;;;;;;1.00;0.70;;;24.10;44.20;;;;;;5038103;28;19905;-63
2023/04/14 03:18:05;;;;;;;0.82;0.73;;;24.10;44.70;;;;;;5039469;28;20044;-63
2023/04/14 03:20:32;;;;;;;1.20;0.73;;;24.00;44.10;;;;;;5040239;28;20052;-63
2023/04/14 03:23:04;;;;;;;0.98;0.60;;;24.00;44.20;;;;;;5039053;28;20477;-63
2023/04/14 03:25:36;;;;;;;1.60;0.80;;;24.00;44.20;;;;;;5039104;28;20097;-64
2023/04/14 03:28:08;;;;;;;1.15;0.63;;;24.00;44.20;;;;;;5038939;28;20078;-63
2023/04/14 03:30:37;;;;;;;0.73;0.60;;;24.00;44.20;;;;;;5037482;28;20033;-63
2023/04/14 03:33:07;;;;;;;0.93;0.70;;;23.90;44.20;;;;;;5039548;28;20033;-63
2023/04/14 03:35:35;;;;;;;0.90;0.70;;;23.90;44.70;;;;;;5039458;28;20055;-64
2023/04/14 03:38:05;;;;;;;1.20;0.70;;;23.90;44.20;;;;;;5040564;28;20119;-63
2023/04/14 03:40:37;;;;;;;1.10;0.60;;;23.90;44.30;;;;;;5041196;28;20060;-63
2023/04/14 03:43:04;;;;;;;1.02;0.73;;;23.90;44.30;;;;;;5042903;28;20059;-63
2023/04/14 03:45:31;;;;;;;0.90;0.70;;;23.90;44.30;;;;;;5038127;28;20033;-63
2023/04/14 03:48:02;;;;;;;1.27;0.70;;;23.80;44.20;;;;;;5036861;28;20068;-63
2023/04/14 03:50:40;;;;;;;0.90;0.73;;;23.80;44.30;;;;;;5040113;28;20029;-63
2023/04/14 03:53:08;;;;;;;1.30;0.80;;;23.80;44.30;;;;;;5036720;28;20029;-64
2023/04/14 03:55:36;;;;;;;0.88;0.75;;;23.70;44.30;;;;;;5039691;28;20864;-62
2023/04/14 03:58:03;;;;;;;1.15;0.63;;;23.70;44.30;;;;;;5038479;28;20029;-63
2023/04/14 04:00:30;;;;;;;0.60;0.60;;;23.70;44.30;;;;;;5038934;28;20485;-64
2023/04/14 04:02:57;;;;;;;0.80;0.70;;;23.70;44.40;;;;;;5039607;28;20061;-63
2023/04/14 04:05:23;;;;;;;0.57;0.55;;;23.70;44.30;;;;;;5039287;28;20017;-62
2023/04/14 04:07:49;;;;;;;0.80;0.70;;;23.70;44.40;;;;;;5039959;28;20017;-63
2023/04/14 04:10:16;;;;;;;0.60;0.60;;;23.60;44.30;;;;;;5041276;28;20481;-63
2023/04/14 04:12:47;;;;;;;0.95;0.70;;;23.60;44.40;;;;;;5040748;28;20481;-63
2023/04/14 04:15:13;;;;;;;0.80;0.60;;;23.60;44.30;;;;;;5042301;28;20175;-63
2023/04/14 04:17:41;;;;;;;0.80;0.60;;;23.60;44.40;;;;;;5044526;28;20108;-63
2023/04/14 04:20:11;;;;;;;0.73;0.60;;;23.50;44.40;;;;;;5040153;28;20159;-63
2023/04/14 04:22:39;;;;;;;0.77;0.60;;;23.60;44.40;;;;;;5040784;28;20075;-63
2023/04/14 04:25:07;;;;;;;0.95;0.70;;;23.50;44.40;;;;;;5041858;28;20110;-63
2023/04/14 04:27:33;;;;;;;0.80;0.60;;;23.50;44.40;;;;;;5044197;28;20065;-63
2023/04/14 04:29:59;;;;;;;0.95;0.60;;;23.50;44.40;;;;;;5042420;28;20488;-63
2023/04/14 04:32:26;;;;;;;0.77;0.55;;;23.50;44.50;;;;;;5043067;28;20026;-60
2023/04/14 04:34:52;;;;;;;0.88;0.60;;;23.50;44.40;;;;;;5042467;28;20144;-63
2023/04/14 04:37:20;;;;;;;0.75;0.60;;;23.50;44.50;;;;;;5041495;28;20028;-63
2023/04/14 04:39:47;;;;;;;1.08;0.60;;;23.40;44.40;;;;;;5040024;28;20484;-64
2023/04/14 04:42:13;;;;;;;0.93;0.57;;;23.40;44.40;;;;;;5038971;28;20121;-63
2023/04/14 04:44:39;;;;;;;0.50;0.50;;;23.40;44.40;;;;;;5043157;28;20092;-63
2023/04/14 04:47:04;;;;;;;0.50;0.50;;;23.40;45.00;;;;;;5041718;28;20033;-63
2023/04/14 04:49:30;;;;;;;0.90;0.63;;;23.40;44.50;;;;;;5044138;28;20029;-63
2023/04/14 04:51:56;;;;;;;0.73;0.50;;;23.40;44.50;;;;;;5043149;28;20026;-63
2023/04/14 04:54:21;;;;;;;0.77;0.47;;;23.40;44.60;;;;;;5044248;28;20104;-63
2023/04/14 04:56:47;;;;;;;0.73;0.60;;;23.30;44.50;;;;;;5043528;28;20037;-64
2023/04/14 04:59:13;;;;;;;0.70;0.50;;;23.30;44.60;;;;;;5041652;28;20087;-62
2023/04/14 05:01:39;;;;;;;0.63;0.52;;;23.30;44.60;;;;;;5039939;28;20029;-63
2023/04/14 05:04:05;;;;;;;1.30;0.60;;;23.30;44.60;;;;;;5043832;28;20068;-63
2023/04/14 05:06:34;;;;;;;0.60;0.50;;;23.20;44.50;;;;;;5041042;28;20455;-62
2023/04/14 05:09:00;;;;;;;0.57;0.50;;;23.30;44.60;;;;;;5039903;28;20029;-63
2023/04/14 05:11:25;;;;;;;0.60;0.50;;;23.20;44.50;;;;;;5041915;28;20099;-63
2023/04/14 05:13:51;;;;;;;0.98;0.60;;;23.20;44.60;;;;;;5042664;28;20477;-63
2023/04/14 05:16:17;;;;;;;0.70;0.55;;;23.20;44.60;;;;;;5042847;28;20025;-63
2023/04/14 05:18:42;;;;;;;1.70;0.70;;;23.20;44.60;;;;;;5041815;28;20029;-62
2023/04/14 05:21:12;;;;;;;1.20;0.70;;;23.20;44.60;;;;;;5043296;28;20029;-62
2023/04/14 05:23:40;;;;;;;0.95;0.52;;;23.20;44.70;;;;;;5038255;28;20025;-61
2023/04/14 05:26:06;;;;;;;1.65;0.73;;;23.20;44.70;;;;;;5040406;28;20393;-62
2023/04/14 05:28:32;;;;;;;1.23;0.65;;;23.20;44.70;;;;;;5044704;28;20060;-62
2023/04/14 05:30:58;;;;;;;0.80;0.50;;;23.10;44.60;;;;;;5041186;28;20026;-61
2023/04/14 05:33:23;;;;;;;0.63;0.50;;;23.10;44.60;;;;;;5040286;28;20380;-62
2023/04/14 05:35:49;;;;;;;0.95;0.60;;;23.10;44.60;;;;;;5044543;28;20034;-62
2023/04/14 05:38:16;;;;;;;0.95;0.60;;;23.10;44.70;;;;;;5040311;28;20028;-62
2023/04/14 05:40:42;;;;;;;0.57;0.50;;;23.10;44.70;;;;;;5039455;28;20529;-62
2023/04/14 05:43:08;;;;;;;1.27;0.60;;;23.10;44.70;;;;;;5039045;28;20025;-62
2023/04/14 05:45:33;;;;;;;0.57;0.50;;;23.00;44.60;;;;;;5039221;28;20025;-62
2023/04/14 05:47:59;;;;;;;1.10;0.60;;;23.00;44.60;;;;;;5043364;28;20025;-61
2023/04/14 05:50:25;;;;;;;0.52;0.45;;;23.00;44.70;;;;;;5044110;28;20465;-62
2023/04/14 05:52:50;;;;;;;0.70;0.50;;;23.00;44.70;;;;;;5041717;28;20128;-62
2023/04/14 05:55:17;;;;;;;0.80;0.50;;;23.00;44.70;;;;;;5044521;28;20033;-62
2023/04/14 05:57:43;;;;;;;0.90;0.60;;;23.00;44.80;;;;;;5043787;28;20037;-62
2023/04/14 06:00:09;;;;;;;0.85;0.70;;;23.00;44.80;;;;;;5040310;28;20029;-62
2023/04/14 06:02:35;;;;;;;0.50;0.50;;;22.90;44.70;;;;;;5041640;28;20465;-62
2023/04/14 06:05:01;;;;;;;0.52;0.52;;;22.90;44.70;;;;;;5041678;28;20025;-62
2023/04/14 06:07:27;;;;;;;0.60;0.50;;;22.90;44.70;;;;;;5041287;28;20496;-62
2023/04/14 06:09:53;;;;;;;0.50;0.50;;;22.90;44.70;;;;;;5039642;28;20110;-62
2023/04/14 06:12:19;;;;;;;0.98;0.70;;;22.90;44.70;;;;;;5041142;28;20482;-62
2023/04/14 06:14:45;;;;;;;0.90;0.52;;;22.90;44.70;;;;;;5041851;28;20136;-62
2023/04/14 06:17:11;;;;;;;0.60;0.47;;;22.90;44.70;;;;;;5041609;28;20049;-62
2023/04/14 06:19:36;;;;;;;0.88;0.50;;;22.90;44.80;;;;;;5040669;28;20025;-62
2023/04/14 06:22:02;;;;;;;0.80;0.60;;;22.90;44.80;;;;;;5037816;28;20040;-62
2023/04/14 06:24:27;;;;;;;0.70;0.60;;;22.90;44.90;;;;;;5037368;28;20025;-62
2023/04/14 06:26:53;;;;;;;1.23;0.60;;;22.90;44.90;;;;;;5040247;28;20072;-62
2023/04/14 06:29:19;;;;;;;0.40;0.40;;;22.80;44.90;;;;;;5040562;28;20048;-62
2023/04/14 06:31:45;;;;;;;1.10;0.57;;;22.80;44.90;;;;;;5040070;28;20021;-62
2023/04/14 06:34:11;;;;;;;1.20;0.63;;;22.80;44.90;;;;;;5038501;28;20032;-62
2023/04/14 06:36:36;;;;;;;0.40;0.40;;;22.80;44.90;;;;;;5040827;28;20029;-62
2023/04/14 06:39:02;;;;;;;0.50;0.47;;;22.80;45.00;;;;;;5040529;28;20033;-62
2023/04/14 06:41:28;;;;;;;0.63;0.50;;;22.80;45.00;;;;;;5039807;28;20048;-62
2023/04/14 06:43:53;;;;;;;1.10;1.00;;;22.80;45.10;;;;;;5040844;28;20075;-62
2023/04/14 06:46:19;;;;;;;0.47;0.47;;;22.80;45.10;;;;;;5040265;28;20420;-63
2023/04/14 06:48:44;;;;;;;0.60;0.50;;;22.70;45.10;;;;;;5040441;28;20028;-62
2023/04/14 06:51:11;;;;;;;0.70;0.40;;;22.70;45.10;;;;;;5037595;28;20116;-62
2023/04/14 06:53:39;;;;;;;0.40;0.40;;;22.70;45.10;;;;;;5036737;28;20029;-63
2023/04/14 06:56:06;;;;;;;1.10;0.52;;;22.70;45.10;;;;;;5039283;28;20061;-62
2023/04/14 06:58:32;;;;;;;0.50;0.40;;;22.70;45.20;;;;;;5038752;28;20037;-63
2023/04/14 07:00:59;;;;;;;0.77;0.50;;;22.70;45.20;;;;;;5038221;28;20442;-62
2023/04/14 07:03:25;;;;;;;0.50;0.40;;;22.70;45.20;;;;;;5036063;28;20029;-62
2023/04/14 07:05:52;;;;;;;0.80;0.65;;;22.70;45.30;;;;;;5040017;28;20365;-62
2023/04/14 07:08:18;;;;;;;0.52;0.50;;;22.70;45.20;;;;;;5040481;28;20013;-61
2023/04/14 07:10:44;;;;;;;0.60;0.57;;;22.70;45.30;;;;;;5036324;28;20028;-62
2023/04/14 07:13:10;;;;;;;0.45;0.45;;;22.70;45.30;;;;;;5039870;28;20552;-62
2023/04/14 07:15:36;;;;;;;0.77;0.50;;;22.70;45.30;;;;;;5038121;28;20029;-62
2023/04/14 07:18:02;;;;;;;1.40;0.60;;;22.70;45.30;;;;;;5041452;28;20032;-62
2023/04/14 07:20:28;;;;;;;0.65;0.60;;;22.60;45.30;;;;;;5041395;28;20122;-62
2023/04/14 07:22:54;;;;;;;0.90;0.60;;;22.60;45.30;;;;;;5039589;28;20029;-62
2023/04/14 07:25:20;;;;;;;1.10;0.63;;;22.60;45.30;;;;;;5038902;28;20044;-62
2023/04/14 07:27:46;;;;;;;0.80;0.50;;;22.60;45.30;;;;;;5038071;28;20065;-62
2023/04/14 07:30:12;;;;;;;0.55;0.50;;;22.60;45.30;;;;;;5040496;28;20428;-62
2023/04/14 07:32:38;;;;;;;0.60;0.60;;;22.60;45.30;;;;;;5037703;28;20029;-62
2023/04/14 07:35:07;;;;;;;0.80;0.60;;;22.60;45.30;;;;;;5037577;28;20719;-63
2023/04/14 07:37:33;;;;;;;0.73;0.52;;;22.60;45.30;;;;;;5038288;28;20445;-62
2023/04/14 07:39:58;;;;;;;0.82;0.55;;;22.60;45.30;;;;;;5037304;28;20105;-62
2023/04/14 07:42:24;;;;;;;1.02;0.57;;;22.60;45.30;;;;;;5036377;28;20033;-62
2023/04/14 07:44:49;;;;;;;0.52;0.50;;;22.60;45.30;;;;;;5041377;28;20493;-62
2023/04/14 07:47:15;;;;;;;0.75;0.55;;;22.60;45.30;;;;;;5037118;28;20564;-62
2023/04/14 07:49:41;;;;;;;0.60;0.60;;;22.60;45.40;;;;;;5040662;28;20068;-63
2023/04/14 07:52:06;;;;;;;0.65;0.55;;;22.50;45.30;;;;;;5039928;28;20057;-62
2023/04/14 07:54:32;;;;;;;0.50;0.50;;;22.50;45.30;;;;;;5038671;28;20084;-62
2023/04/14 07:56:58;;;;;;;0.68;0.50;;;22.50;45.30;;;;;;5041157;28;20056;-62
2023/04/14 07:59:24;;;;;;;1.15;0.55;;;22.50;45.30;;;;;;5040480;28;20061;-62
2023/04/14 08:01:50;;;;;;;0.93;0.60;;;22.50;45.30;;;;;;5039461;28;20488;-62
2023/04/14 08:04:15;;;;;;;0.80;0.60;;;22.50;45.30;;;;;;5034923;28;20025;-62
2023/04/14 08:06:41;;;;;;;0.50;0.50;;;22.50;45.30;;;;;;5036509;28;20033;-61
2023/04/14 08:09:06;;;;;;;0.60;0.52;;;22.50;45.30;;;;;;5038780;28;20029;-62
2023/04/14 08:11:32;;;;;;;0.57;0.57;;;22.50;45.30;;;;;;5038324;28;20029;-62
2023/04/14 08:13:57;;;;;;;0.93;0.60;;;22.50;45.30;;;;;;5037258;28;20497;-63
2023/04/14 08:16:24;;;;;;;0.70;0.50;;;22.50;45.40;;;;;;5038173;28;20045;-62
2023/04/14 08:18:50;;;;;;;0.82;0.60;;;22.50;45.40;;;;;;5040741;28;20028;-62
2023/04/14 08:21:15;;;;;;;0.80;0.60;;;22.50;45.40;;;;;;5039855;28;20028;-62
2023/04/14 08:23:41;;;;;;;0.60;0.40;;;22.50;45.40;;;;;;5040252;28;20045;-62
2023/04/14 08:26:07;;;;;;;0.98;0.70;;;22.50;45.40;;;;;;5039023;28;20036;-63
2023/04/14 08:28:32;;;;;;;1.17;0.60;;;22.50;45.40;;;;;;5039139;28;20492;-62
2023/04/14 08:30:58;;;;;;;0.73;0.52;;;22.50;45.40;;;;;;5036807;28;20624;-62
2023/04/14 08:33:24;;;;;;;0.60;0.50;;;22.50;45.40;;;;;;5036935;28;20025;-62
2023/04/14 08:35:49;;;;;;;0.65;0.40;;;22.50;45.50;;;;;;5036895;28;20071;-62
2023/04/14 08:38:15;;;;;;;0.55;0.55;;;22.40;45.40;;;;;;5037770;28;20434;-62
2023/04/14 08:40:42;;;;;;;0.70;0.57;;;22.50;45.50;;;;;;5036020;28;20067;-61
2023/04/14 08:43:09;;;;;;;1.10;0.60;;;22.40;45.50;;;;;;5036944;28;20041;-62
2023/04/14 08:45:35;;;;;;;0.73;0.50;;;22.40;45.50;;;;;;5038533;28;20619;-59
2023/04/14 08:48:02;;;;;;;0.65;0.50;;;22.40;45.50;;;;;;5038082;28;20099;-61
2023/04/14 08:51:00;;;;;;;0.60;0.60;;;22.40;45.50;;;;;;5036858;28;20073;-62
2023/04/14 08:53:28;;;;;;;0.47;0.47;;;22.40;45.50;;;;;;5031933;28;20102;-62
2023/04/14 08:55:54;;;;;;;0.60;0.60;;;22.40;45.50;;;;;;5038811;28;20041;-62
2023/04/14 08:58:20;;;;;;;1.10;0.63;;;22.40;45.50;;;;;;5054665;28;20064;-62
2023/04/14 09:00:46;;;;;;;1.05;0.70;;;22.40;45.50;;;;;;5040635;28;20049;-62
2023/04/14 09:03:13;;;;;;;1.05;0.73;;;22.40;45.60;;;;;;5040009;28;20040;-62
2023/04/14 09:05:40;;;;;;;0.93;0.60;;;22.40;45.60;;;;;;5041980;28;20029;-62
2023/04/14 09:08:06;;;;;;;0.57;0.57;;;22.40;45.60;;;;;;5038955;28;20033;-61
2023/04/14 09:10:34;;;;;;;1.23;0.63;;;22.40;45.60;;;;;;5038713;28;20047;-61
2023/04/14 09:13:01;;;;;;;1.05;0.70;;;22.40;45.70;;;;;;5040923;28;20116;-61
2023/04/14 09:15:27;;;;;;;0.75;0.60;;;22.40;45.70;;;;;;5041018;28;20055;-61
2023/04/14 09:17:54;;;;;;;0.88;0.60;;;22.40;45.70;;;;;;5041030;28;20029;-61
2023/04/14 09:20:19;;;;;;;1.20;0.68;;;22.40;46.20;;;;;;5043691;28;20025;-62
2023/04/14 09:22:45;;;;;;;0.60;0.60;;;22.40;45.70;;;;;;5038992;28;20501;-61
2023/04/14 09:25:14;;;;;;;1.02;0.63;;;22.30;45.70;;;;;;5037156;28;20072;-61
2023/04/14 09:27:41;;;;;;;0.70;0.50;;;22.40;46.30;;;;;;5038984;28;20075;-62
2023/04/14 09:30:08;;;;;;;1.05;0.77;;;22.30;45.80;;;;;;5037268;28;20029;-61
2023/04/14 09:32:34;;;;;;;1.05;0.70;;;22.30;45.80;;;;;;5040426;28;20377;-61
2023/04/14 09:35:00;;;;;;;0.85;0.60;;;22.30;45.80;;;;;;5041912;28;20078;-61
2023/04/14 09:37:26;;;;;;;0.75;0.60;;;22.30;45.80;;;;;;5040173;28;20060;-61
2023/04/14 09:39:54;;;;;;;0.77;0.70;;;22.40;45.90;;;;;;5041898;28;20112;-61
2023/04/14 09:42:39;;;;;;;1.25;0.60;;;22.30;45.80;;;;;;5039856;28;20026;-61
2023/04/14 09:45:05;;;;;;;0.75;0.50;;;22.30;45.90;;;;;;5042074;28;20029;-62
2023/04/14 09:47:31;;;;;;;0.65;0.60;;;22.40;45.90;;;;;;5041240;28;20040;-61
2023/04/14 09:49:59;;;;;;;1.25;0.70;;;22.30;46.40;;;;;;5038236;28;20032;-61
2023/04/14 09:52:37;;;;;;;1.15;0.75;;;22.30;45.90;;;;;;5038919;28;20478;-61
2023/04/14 09:55:09;;;;;;;0.90;0.73;;;22.40;46.00;;;;;;5040326;28;20021;-61
2023/04/14 09:57:37;;;;;;;0.82;0.60;;;22.30;45.90;;;;;;5038606;28;20045;-61
2023/04/14 10:00:16;;;;;;;1.02;0.70;;;22.40;46.00;;;;;;5041183;28;20024;-61
2023/04/14 10:03:00;;;;;;;1.13;0.80;;;22.40;46.00;;;;;;5038784;28;20024;-61
2023/04/14 10:05:30;;;;;;;0.73;0.60;;;22.30;46.00;;;;;;5041353;28;20032;-61
2023/04/14 10:08:04;;;;;;;2.60;0.70;;;22.30;46.00;;;;;;5041469;28;20079;-61
2023/04/14 10:10:30;;;;;;;1.80;0.68;;;22.30;46.00;;;;;;5039155;28;20021;-61
2023/04/14 10:12:55;;;;;;;1.00;0.60;;;22.30;46.00;;;;;;5039358;28;20033;-61
2023/04/14 10:15:21;;;;;;;0.82;0.60;;;22.40;46.00;;;;;;5041101;28;20040;-62
2023/04/14 10:17:47;;;;;;;0.70;0.57;;;22.30;46.50;;;;;;5042309;28;20037;-61
2023/04/14 10:20:13;;;;;;;0.90;0.70;;;22.30;46.00;;;;;;5040570;28;20032;-61
2023/04/14 10:22:40;;;;;;;1.17;0.68;;;22.30;46.00;;;;;;5040857;28;20063;-61
2023/04/14 10:25:08;;;;;;;1.33;0.70;;;22.30;46.00;;;;;;5038192;28;20144;-61
2023/04/14 10:27:34;;;;;;;0.60;0.60;;;22.30;46.00;;;;;;5037745;28;20112;-61
2023/04/14 10:30:00;;;;;;;1.30;0.77;;;22.30;46.00;;;;;;5041668;28;20047;-61
2023/04/14 10:32:31;;;;;;;0.80;0.60;;;22.30;46.00;;;;;;5041031;28;20083;-61
2023/04/14 10:35:09;;;;;;;1.10;0.70;;;22.30;46.00;;;;;;5038858;28;20451;-61
2023/04/14 10:37:35;;;;;;;0.85;0.65;;;22.30;46.00;;;;;;5040528;28;20132;-61
2023/04/14 10:40:04;;;;;;;0.98;0.52;;;22.30;46.00;;;;;;5037864;28;20587;-61
2023/04/14 10:42:50;;;;;;;2.05;0.80;;;22.30;46.00;;;;;;5039497;28;20055;-61
2023/04/14 10:45:16;;;;;;;0.80;0.43;;;22.30;46.00;;;;;;5039973;28;20529;-61
2023/04/14 10:47:44;;;;;;;0.95;0.68;;;22.30;46.00;;;;;;5039729;28;20104;-61
2023/04/14 10:50:16;;;;;;;1.05;0.70;;;22.30;46.00;;;;;;5039293;28;20534;-61
2023/04/14 10:53:08;;;;;;;1.40;0.68;;;22.30;46.10;;;;;;5037226;28;20488;-61
2023/04/14 10:55:45;;;;;;;1.10;0.60;;;22.30;46.10;;;;;;5037138;28;20051;-61
2023/04/14 10:58:18;;;;;;;0.90;0.70;;;22.30;46.00;;;;;;5035411;28;20112;-61
2023/04/14 11:00:45;;;;;;;0.43;0.43;;;22.30;46.10;;;;;;5038157;28;20086;-61
2023/04/14 11:03:11;;;;;;;0.60;0.60;;;22.30;46.10;;;;;;5043399;28;20380;-61
2023/04/14 11:05:44;;;;;;;1.30;0.70;;;22.30;46.10;;;;;;5042090;28;20491;-59
2023/04/14 11:08:15;;;;;;;0.82;0.60;;;22.30;46.10;;;;;;5041390;28;20539;-61
2023/04/14 11:10:48;;;;;;;1.10;0.70;;;22.30;46.10;;;;;;5036214;28;20029;-61
2023/04/14 11:13:14;;;;;;;0.73;0.57;;;22.30;46.10;;;;;;5042410;28;20026;-61
2023/04/14 11:15:44;;;;;;;0.82;0.50;;;22.30;46.10;;;;;;5036963;28;20477;-61
2023/04/14 11:18:34;;;;;;;0.63;0.60;;;22.30;46.10;;;;;;5038624;28;20056;-63
2023/04/14 11:21:04;;;;;;;0.70;0.60;;;22.30;46.10;;;;;;5032409;28;20128;-61
2023/04/14 11:23:30;;;;;;;1.05;0.80;;;22.30;46.10;;;;;;5039033;28;20067;-61
2023/04/14 11:25:57;;;;;;;0.75;0.60;;;22.30;46.10;;;;;;5035481;28;20548;-61
2023/04/14 11:28:33;;;;;;;1.05;0.70;;;22.30;46.10;;;;;;5041345;28;20076;-61
2023/04/14 11:31:00;;;;;;;0.70;0.50;;;22.30;46.10;;;;;;5040501;28;20086;-61
2023/04/14 11:33:31;;;;;;;0.63;0.60;;;22.30;46.10;;;;;;5037419;28;20025;-61
2023/04/14 11:35:57;;;;;;;0.80;0.60;;;22.30;46.40;;;;;;5039922;28;20388;-62
2023/04/14 11:38:23;;;;;;;1.23;0.60;;;22.30;46.30;;;;;;5038918;28;20492;-62
2023/04/14 11:40:50;;;;;;;0.50;0.50;;;22.30;46.30;;;;;;5038143;28;20035;-61
2023/04/14 11:43:15;;;;;;;0.55;0.50;;;22.30;46.30;;;;;;5041333;28;20083;-61
2023/04/14 11:45:42;;;;;;;0.70;0.45;;;22.30;46.30;;;;;;5038746;28;20594;-61
2023/04/14 11:48:09;;;;;;;0.68;0.60;;;22.30;46.40;;;;;;5037836;28;20481;-61
2023/04/14 11:50:38;;;;;;;0.80;0.50;;;22.30;46.30;;;;;;5040283;28;20503;-61
2023/04/14 11:53:21;;;;;;;0.70;0.50;;;22.30;46.30;;;;;;5039713;28;20041;-61
2023/04/14 11:55:53;;;;;;;1.70;0.70;;;22.30;46.30;;;;;;5039678;28;20041;-61
2023/04/14 11:58:23;;;;;;;0.60;0.50;;;22.30;46.30;;;;;;5039391;28;20455;-61
2023/04/14 12:00:49;;;;;;;0.75;0.43;;;22.30;46.30;;;;;;5038370;28;20075;-61
2023/04/14 12:03:16;;;;;;;0.50;0.50;;;22.30;46.30;;;;;;5037016;28;20041;-61
2023/04/14 12:05:42;;;;;;;0.73;0.60;;;22.30;46.30;;;;;;5040712;28;20044;-61
2023/04/14 12:08:09;;;;;;;0.60;0.52;;;22.30;46.30;;;;;;5039442;28;20511;-61
2023/04/14 12:10:36;;;;;;;1.33;0.60;;;22.30;46.30;;;;;;5035968;28;20017;-61
2023/04/14 12:13:03;;;;;;;0.60;0.55;;;22.30;46.20;;;;;;5038748;28;20079;-61
2023/04/14 12:15:37;;;;;;;1.10;0.68;;;22.30;46.30;;;;;;5039176;28;20021;-61
2023/04/14 12:18:05;;;;;;;0.93;0.60;;;22.30;46.20;;;;;;5037804;28;20033;-61
2023/04/14 12:20:51;;;;;;;0.77;0.60;;;22.30;46.20;;;;;;5038367;28;20609;-61
2023/04/14 12:23:17;;;;;;;1.00;0.63;;;22.30;46.20;;;;;;5037774;28;20477;-61
2023/04/14 12:25:43;;;;;;;0.82;0.60;;;22.30;46.20;;;;;;5035953;28;20033;-61
2023/04/14 12:28:08;;;;;;;2.03;0.60;;;22.30;46.20;;;;;;5039044;28;20040;-61
2023/04/14 12:30:36;;;;;;;0.98;0.60;;;22.30;46.20;;;;;;5037485;28;20029;-61
2023/04/14 12:33:11;;;;;;;0.77;0.60;;;22.30;46.10;;;;;;5037546;28;20476;-61
2023/04/14 12:35:37;;;;;;;0.40;0.40;;;22.30;46.10;;;;;;5044665;28;20036;-62
2023/04/14 12:38:13;;;;;;;0.75;0.60;;;22.30;46.10;;;;;;5043826;28;20021;-61
2023/04/14 12:40:44;;;;;;;0.63;0.50;;;22.30;46.10;;;;;;5039577;28;20033;-61
2023/04/14 12:43:25;;;;;;;0.55;0.47;;;22.30;46.10;;;;;;5042743;28;20043;-65
2023/04/14 12:45:51;;;;;;;1.92;0.40;;;22.30;46.20;;;;;;5041709;28;20037;-67
2023/04/14 12:48:17;;;;;;;0.77;0.60;;;22.40;46.60;;;;;;5040133;28;20825;-68
2023/04/14 12:50:43;;;;;;;0.82;0.63;;;22.30;46.70;;;;;;5044743;28;20026;-67
2023/04/14 12:53:31;;;;;;;0.82;0.60;;;22.40;46.80;;;;;;5041988;28;20448;-67